createdAt,value
2023-04-30T00:01:28.134Z,34.22
2023-04-30T00:03:55.339Z,32.75
2023-04-30T00:06:22.549Z,28.90
2023-04-30T00:08:49.633Z,37.70
2023-04-30T00:11:16.779Z,34.47
2023-04-30T00:13:43.863Z,28.70
2023-04-30T00:16:11.361Z,32.92
2023-04-30T00:18:39.277Z,27.67
2023-04-30T00:21:06.587Z,26.40
2023-04-30T00:23:33.728Z,21.63
2023-04-30T00:26:01.066Z,31.33
2023-04-30T00:28:28.154Z,30.35
2023-04-30T00:30:55.522Z,39.88
2023-04-30T00:33:22.725Z,27.92
2023-04-30T00:35:50.424Z,30.23
2023-04-30T00:38:17.604Z,27.42
2023-04-30T00:40:45.902Z,41.88
2023-04-30T00:43:12.976Z,22.83
2023-04-30T00:45:40.169Z,32.55
2023-04-30T00:48:07.800Z,30.75
2023-04-30T00:50:36.622Z,40.95
2023-04-30T00:53:04.327Z,31.05
2023-04-30T00:55:31.716Z,31.63
2023-04-30T00:58:00.262Z,38.58
2023-04-30T01:00:28.149Z,27.63
2023-04-30T01:02:56.965Z,32.70
2023-04-30T01:05:24.703Z,33.58
2023-04-30T01:07:54.070Z,26.05
2023-04-30T01:10:23.109Z,31.05
2023-04-30T01:12:55.977Z,31.42
2023-04-30T01:15:31.434Z,27.65
2023-04-30T01:18:10.936Z,36.17
2023-04-30T01:20:46.505Z,38.75
2023-04-30T01:23:32.109Z,34.30
2023-04-30T01:26:13.975Z,35.42
2023-04-30T01:28:44.882Z,32.67
2023-04-30T01:31:18.934Z,29.25
2023-04-30T01:33:46.924Z,39.03
2023-04-30T01:36:34.065Z,44.25
2023-04-30T01:39:21.908Z,40.08
2023-04-30T01:42:01.761Z,32.08
2023-04-30T01:45:06.466Z,29.63
2023-04-30T01:48:04.777Z,37.10
2023-04-30T01:50:35.059Z,33.38
2023-04-30T01:53:07.622Z,30.35
2023-04-30T01:56:12.038Z,34.53
2023-04-30T01:58:40.724Z,39.45
2023-04-30T02:01:08.070Z,33.60
2023-04-30T02:03:35.340Z,31.50
2023-04-30T02:06:02.584Z,35.55
2023-04-30T02:08:29.806Z,30.05
2023-04-30T02:10:56.849Z,46.53
2023-04-30T02:13:24.231Z,36.25
2023-04-30T02:15:51.714Z,37.72
2023-04-30T02:18:19.034Z,40.33
2023-04-30T02:20:46.170Z,44.78
2023-04-30T02:23:13.526Z,37.55
2023-04-30T02:25:41.455Z,43.42
2023-04-30T02:28:08.554Z,44.80
2023-04-30T02:30:35.739Z,38.38
2023-04-30T02:33:03.711Z,43.40
2023-04-30T02:35:30.873Z,40.17
2023-04-30T02:37:57.967Z,38.88
2023-04-30T02:40:25.185Z,38.83
2023-04-30T02:42:54.201Z,39.97
2023-04-30T02:45:21.674Z,34.90
2023-04-30T02:47:49.174Z,35.22
2023-04-30T02:50:16.406Z,37.42
2023-04-30T02:52:45.990Z,39.53
2023-04-30T02:55:13.516Z,45.97
2023-04-30T02:57:40.870Z,39.75
2023-04-30T03:00:08.551Z,36.67
2023-04-30T03:02:36.378Z,33.58
2023-04-30T03:05:04.281Z,39.83
2023-04-30T03:07:31.522Z,34.65
2023-04-30T03:10:00.005Z,36.67
2023-04-30T03:12:27.156Z,39.92
2023-04-30T03:14:54.400Z,40.03
2023-04-30T03:17:21.829Z,55.05
2023-04-30T03:19:48.972Z,43.35
2023-04-30T03:22:16.037Z,41.22
2023-04-30T03:24:43.364Z,40.75
2023-04-30T03:27:10.542Z,38.97
2023-04-30T03:29:37.649Z,45.40
2023-04-30T03:32:05.044Z,38.83
2023-04-30T03:34:32.617Z,43.15
2023-04-30T03:37:01.979Z,41.65
2023-04-30T03:39:29.132Z,45.08
2023-04-30T03:41:56.139Z,42.40
2023-04-30T03:44:23.389Z,45.55
2023-04-30T03:46:50.706Z,41.60
2023-04-30T03:49:17.895Z,48.30
2023-04-30T03:51:45.332Z,34.03
2023-04-30T03:54:12.653Z,37.50
2023-04-30T03:56:41.227Z,38.85
2023-04-30T03:59:08.486Z,46.50
2023-04-30T04:01:36.095Z,39.38
2023-04-30T04:04:03.450Z,36.67
2023-04-30T04:06:32.486Z,40.53
2023-04-30T04:08:59.601Z,38.13
2023-04-30T04:11:26.819Z,31.65
2023-04-30T04:13:54.930Z,23.90
2023-04-30T04:16:22.369Z,26.02
2023-04-30T04:18:49.776Z,29.98
2023-04-30T04:21:17.168Z,26.80
2023-04-30T04:23:45.782Z,39.72
2023-04-30T04:26:12.975Z,34.97
2023-04-30T04:28:40.249Z,40.60
2023-04-30T04:31:08.013Z,30.73
2023-04-30T04:33:35.168Z,27.23
2023-04-30T04:36:02.733Z,27.23
2023-04-30T04:38:29.886Z,30.25
2023-04-30T04:40:57.529Z,26.13
2023-04-30T04:43:24.867Z,28.58
2023-04-30T04:45:52.446Z,37.63
2023-04-30T04:48:19.760Z,32.50
2023-04-30T04:50:46.860Z,25.73
2023-04-30T04:53:14.222Z,27.60
2023-04-30T04:55:41.352Z,24.55
2023-04-30T04:58:08.479Z,35.63
2023-04-30T05:00:35.898Z,32.67
2023-04-30T05:03:03.674Z,20.77
2023-04-30T05:05:30.899Z,19.92
2023-04-30T05:07:58.001Z,27.10
2023-04-30T05:10:25.093Z,31.05
2023-04-30T05:12:52.180Z,35.45
2023-04-30T05:15:19.324Z,33.95
2023-04-30T05:17:46.515Z,32.58
2023-04-30T05:20:13.899Z,25.13
2023-04-30T05:22:41.062Z,32.67
2023-04-30T05:25:08.583Z,32.88
2023-04-30T05:27:36.301Z,24.38
2023-04-30T05:30:03.807Z,22.83
2023-04-30T05:32:33.271Z,33.40
2023-04-30T05:35:01.036Z,19.30
2023-04-30T05:37:28.171Z,26.05
2023-04-30T05:39:55.689Z,23.38
2023-04-30T05:42:23.036Z,26.52
2023-04-30T05:44:50.226Z,34.22
2023-04-30T05:47:17.501Z,26.77
2023-04-30T05:49:44.647Z,30.70
2023-04-30T05:52:12.062Z,28.73
2023-04-30T05:54:39.196Z,19.08
2023-04-30T05:57:06.256Z,15.90
2023-04-30T05:59:33.369Z,16.95
2023-04-30T06:02:00.641Z,14.43
2023-04-30T06:04:28.559Z,17.63
2023-04-30T06:06:55.648Z,11.80
2023-04-30T06:09:22.777Z,13.48
2023-04-30T06:11:52.091Z,12.55
2023-04-30T06:14:20.376Z,11.05
2023-04-30T06:16:47.738Z,10.82
2023-04-30T06:19:15.150Z,14.60
2023-04-30T06:21:44.108Z,11.82
2023-04-30T06:24:11.249Z,9.85
2023-04-30T06:26:39.033Z,14.90
2023-04-30T06:29:06.524Z,11.20
2023-04-30T06:31:33.764Z,12.95
2023-04-30T06:34:01.092Z,14.25
2023-04-30T06:36:28.249Z,17.70
2023-04-30T06:38:55.394Z,10.52
2023-04-30T06:41:22.598Z,11.15
2023-04-30T06:43:49.747Z,7.55
2023-04-30T06:46:16.895Z,8.60
2023-04-30T06:48:44.115Z,8.20
2023-04-30T06:51:11.231Z,4.55
2023-04-30T06:53:38.463Z,6.38
2023-04-30T06:56:06.177Z,5.82
2023-04-30T06:58:33.407Z,6.90
2023-04-30T07:01:01.404Z,7.80
2023-04-30T07:03:29.315Z,9.25
2023-04-30T07:05:56.832Z,8.52
2023-04-30T07:08:23.956Z,4.55
2023-04-30T07:10:51.124Z,11.13
2023-04-30T07:13:18.469Z,5.60
2023-04-30T07:15:45.740Z,4.80
2023-04-30T07:18:13.274Z,6.32
2023-04-30T07:20:40.455Z,4.80
2023-04-30T07:23:07.580Z,3.60
2023-04-30T07:25:35.498Z,7.00
2023-04-30T07:28:02.684Z,4.18
2023-04-30T07:30:29.958Z,9.77
2023-04-30T07:32:57.169Z,6.55
2023-04-30T07:35:24.383Z,13.68
2023-04-30T07:37:51.549Z,4.20
2023-04-30T07:40:25.353Z,8.90
2023-04-30T07:43:02.641Z,8.95
2023-04-30T07:45:29.714Z,12.88
2023-04-30T07:47:56.998Z,7.63
2023-04-30T07:50:24.117Z,5.43
2023-04-30T07:52:51.243Z,8.35
2023-04-30T07:55:18.430Z,11.18
2023-04-30T07:57:45.541Z,6.18
2023-04-30T08:00:13.782Z,8.38
2023-04-30T08:02:41.148Z,7.10
2023-04-30T08:05:09.419Z,5.15
2023-04-30T08:07:36.656Z,7.05
2023-04-30T08:10:04.012Z,2.28
2023-04-30T08:12:31.148Z,10.02
2023-04-30T08:15:04.297Z,6.57
2023-04-30T08:17:33.217Z,3.58
2023-04-30T08:20:04.753Z,10.50
2023-04-30T08:22:32.146Z,5.22
2023-04-30T08:25:01.958Z,4.15
2023-04-30T08:27:32.439Z,2.17
2023-04-30T08:29:59.626Z,2.90
2023-04-30T08:32:27.943Z,4.60
2023-04-30T08:34:55.418Z,4.82
2023-04-30T08:37:22.693Z,1.30
2023-04-30T08:39:50.013Z,4.78
2023-04-30T08:42:18.819Z,3.85
2023-04-30T08:44:47.243Z,5.05
2023-04-30T08:47:15.657Z,3.05
2023-04-30T08:49:43.842Z,4.40
2023-04-30T08:52:11.285Z,3.28
2023-04-30T08:54:59.033Z,4.18
2023-04-30T08:57:26.571Z,2.45
2023-04-30T08:59:56.755Z,2.20
2023-04-30T09:02:24.203Z,12.25
2023-04-30T09:04:51.717Z,2.92
2023-04-30T09:07:18.986Z,5.40
2023-04-30T09:09:46.112Z,3.55
2023-04-30T09:12:20.639Z,3.63
2023-04-30T09:15:05.114Z,2.53
2023-04-30T09:17:35.212Z,7.95
2023-04-30T09:20:13.785Z,5.80
2023-04-30T09:22:42.484Z,2.45
2023-04-30T09:25:11.425Z,5.15
2023-04-30T09:27:38.651Z,2.47
2023-04-30T09:30:06.957Z,2.15
2023-04-30T09:32:34.266Z,4.47
2023-04-30T09:35:01.538Z,3.30
2023-04-30T09:37:38.609Z,2.30
2023-04-30T09:40:06.735Z,4.18
2023-04-30T09:42:33.768Z,1.90
2023-04-30T09:45:00.975Z,3.42
2023-04-30T09:47:31.809Z,7.47
2023-04-30T09:50:00.688Z,3.95
2023-04-30T09:52:28.221Z,4.40
2023-04-30T09:54:55.450Z,4.90
2023-04-30T09:57:24.536Z,2.75
2023-04-30T09:59:54.143Z,2.10
2023-04-30T10:02:24.057Z,5.55
2023-04-30T10:04:56.677Z,3.38
2023-04-30T10:07:29.520Z,4.18
2023-04-30T10:10:07.707Z,4.15
2023-04-30T10:12:42.232Z,2.33
2023-04-30T10:15:20.841Z,4.85
2023-04-30T10:18:05.165Z,5.85
2023-04-30T10:20:37.128Z,4.05
2023-04-30T10:23:05.032Z,3.83
2023-04-30T10:25:33.006Z,10.65
2023-04-30T10:28:02.052Z,4.05
2023-04-30T10:30:32.100Z,2.60
2023-04-30T10:33:18.058Z,1.98
2023-04-30T10:35:47.758Z,1.80
2023-04-30T10:38:26.833Z,3.85
2023-04-30T10:41:06.895Z,4.45
2023-04-30T10:43:36.634Z,4.85
2023-04-30T10:46:04.865Z,3.80
2023-04-30T10:48:35.608Z,4.70
2023-04-30T10:53:32.912Z,2.15
2023-04-30T10:56:09.632Z,8.10
2023-04-30T10:58:41.249Z,3.00
2023-04-30T11:01:17.689Z,5.65
2023-04-30T11:04:06.631Z,2.50
2023-04-30T11:06:52.524Z,3.20
2023-04-30T11:09:35.079Z,9.30
2023-04-30T11:12:04.221Z,3.10
2023-04-30T11:14:34.953Z,4.07
2023-04-30T11:19:30.269Z,5.82
2023-04-30T11:22:06.548Z,3.50
2023-04-30T11:24:52.780Z,4.07
2023-04-30T11:27:24.352Z,4.88
2023-04-30T11:29:53.058Z,5.53
2023-04-30T11:32:22.500Z,2.83
2023-04-30T11:34:50.689Z,6.80
2023-04-30T11:37:43.807Z,7.43
2023-04-30T11:40:13.800Z,1.95
2023-04-30T11:42:47.095Z,3.05
2023-04-30T11:45:27.254Z,12.88
2023-04-30T11:47:55.295Z,6.22
2023-04-30T11:50:29.463Z,6.90
2023-04-30T11:52:58.661Z,10.02
2023-04-30T11:55:26.736Z,7.72
2023-04-30T11:57:56.180Z,8.48
2023-04-30T12:00:28.276Z,6.82
2023-04-30T12:02:56.861Z,2.63
2023-04-30T12:05:26.916Z,4.30
2023-04-30T12:08:00.661Z,4.43
2023-04-30T12:10:27.901Z,5.22
2023-04-30T12:12:55.504Z,14.30
2023-04-30T12:15:28.087Z,16.92
2023-04-30T12:17:57.388Z,4.95
2023-04-30T12:20:31.157Z,3.83
2023-04-30T12:22:58.865Z,2.90
2023-04-30T12:25:29.051Z,4.00
2023-04-30T12:27:59.998Z,6.60
2023-04-30T12:30:27.759Z,4.00
2023-04-30T12:32:59.628Z,8.95
2023-04-30T12:35:29.534Z,5.05
2023-04-30T12:38:05.065Z,6.72
2023-04-30T12:40:32.902Z,6.00
2023-04-30T12:43:08.001Z,5.57
2023-04-30T12:45:47.698Z,5.57
2023-04-30T12:48:16.147Z,9.45
2023-04-30T12:50:47.394Z,7.45
2023-04-30T12:53:14.715Z,9.93
2023-04-30T12:55:42.300Z,5.90
2023-04-30T12:58:11.602Z,4.90
2023-04-30T13:00:48.899Z,6.53
2023-04-30T13:03:19.113Z,5.00
2023-04-30T13:05:53.072Z,10.45
2023-04-30T13:08:23.688Z,4.72
2023-04-30T13:10:50.850Z,6.70
2023-04-30T13:13:18.785Z,6.72
2023-04-30T13:15:46.270Z,4.95
2023-04-30T13:18:15.881Z,5.60
2023-04-30T13:20:45.760Z,13.88
2023-04-30T13:23:13.039Z,19.00
2023-04-30T13:25:42.084Z,5.25
2023-04-30T13:28:09.340Z,4.00
2023-04-30T13:30:36.500Z,5.80
2023-04-30T13:33:03.743Z,11.60
2023-04-30T13:35:31.068Z,4.40
2023-04-30T13:37:59.847Z,8.68
2023-04-30T13:40:27.377Z,6.10
2023-04-30T13:42:54.447Z,5.00
2023-04-30T13:45:21.905Z,7.05
2023-04-30T13:47:49.050Z,3.42
2023-04-30T13:50:16.343Z,6.38
2023-04-30T13:52:43.584Z,7.78
2023-04-30T13:55:10.780Z,5.18
2023-04-30T13:57:38.103Z,6.63
2023-04-30T14:00:06.463Z,8.52
2023-04-30T14:02:35.789Z,10.18
2023-04-30T14:05:06.754Z,6.30
2023-04-30T14:07:34.305Z,6.85
2023-04-30T14:10:01.372Z,7.57
2023-04-30T14:12:33.243Z,16.60
2023-04-30T14:15:00.514Z,10.90
2023-04-30T14:17:27.810Z,8.30
2023-04-30T14:19:55.202Z,8.10
2023-04-30T14:22:22.855Z,9.05
2023-04-30T14:24:52.351Z,6.90
2023-04-30T14:27:19.617Z,7.25
2023-04-30T14:29:46.741Z,11.80
2023-04-30T14:32:14.862Z,6.22
2023-04-30T14:34:42.056Z,8.93
2023-04-30T14:37:09.252Z,9.70
2023-04-30T14:39:36.411Z,11.38
2023-04-30T14:42:04.226Z,6.57
2023-04-30T14:44:32.564Z,8.18
2023-04-30T14:46:59.907Z,7.88
2023-04-30T14:49:27.322Z,8.00
2023-04-30T14:51:54.490Z,6.97
2023-04-30T14:54:22.132Z,11.18
2023-04-30T14:56:49.367Z,10.73
2023-04-30T14:59:16.518Z,6.18
2023-04-30T15:01:44.779Z,12.63
2023-04-30T15:04:12.079Z,7.78
2023-04-30T15:06:39.382Z,7.40
2023-04-30T15:09:06.600Z,7.38
2023-04-30T15:11:33.693Z,6.57
2023-04-30T15:14:00.856Z,5.85
2023-04-30T15:16:28.246Z,5.97
2023-04-30T15:18:55.450Z,4.82
2023-04-30T15:21:22.759Z,6.10
2023-04-30T15:23:50.657Z,5.60
2023-04-30T15:26:17.873Z,5.55
2023-04-30T15:28:44.935Z,5.63
2023-04-30T15:31:12.024Z,3.17
2023-04-30T15:33:41.012Z,5.25
2023-04-30T15:36:09.990Z,5.63
2023-04-30T15:38:37.207Z,6.72
2023-04-30T15:41:04.433Z,5.93
2023-04-30T15:43:32.512Z,10.48
2023-04-30T15:45:59.775Z,6.05
2023-04-30T15:48:27.033Z,2.72
2023-04-30T15:50:54.168Z,6.15
2023-04-30T15:53:21.401Z,4.75
2023-04-30T15:55:49.768Z,6.47
2023-04-30T15:58:17.014Z,9.80
2023-04-30T16:00:44.378Z,7.35
2023-04-30T16:03:12.147Z,5.15
2023-04-30T16:05:40.596Z,9.85
2023-04-30T16:08:10.225Z,7.85
2023-04-30T16:10:38.677Z,4.57
2023-04-30T16:13:05.833Z,8.68
2023-04-30T16:15:32.969Z,8.05
2023-04-30T16:18:00.240Z,5.60
2023-04-30T16:20:27.939Z,3.72
2023-04-30T16:22:56.475Z,6.05
2023-04-30T16:25:23.915Z,9.02
2023-04-30T16:27:51.753Z,4.45
2023-04-30T16:30:19.122Z,5.32
2023-04-30T16:32:46.211Z,9.45
2023-04-30T16:35:13.553Z,8.43
2023-04-30T16:37:40.913Z,7.68
2023-04-30T16:40:08.401Z,3.90
2023-04-30T16:42:35.554Z,3.83
2023-04-30T16:45:03.031Z,3.20
2023-04-30T16:47:33.830Z,6.38
2023-04-30T16:50:01.087Z,7.13
2023-04-30T16:52:29.847Z,8.05
2023-04-30T16:54:56.991Z,6.03
2023-04-30T16:57:25.460Z,7.30
2023-04-30T16:59:53.034Z,4.03
2023-04-30T17:02:20.656Z,9.45
2023-04-30T17:04:47.805Z,4.82
2023-04-30T17:07:16.368Z,8.40
2023-04-30T17:09:43.586Z,6.68
2023-04-30T17:12:11.248Z,10.65
2023-04-30T17:14:40.663Z,7.93
2023-04-30T17:17:07.964Z,5.10
2023-04-30T17:19:35.090Z,4.72
2023-04-30T17:22:03.287Z,10.30
2023-04-30T17:24:30.457Z,5.90
2023-04-30T17:26:59.444Z,5.60
2023-04-30T17:29:26.972Z,5.35
2023-04-30T17:31:54.490Z,4.88
2023-04-30T17:34:21.910Z,7.22
2023-04-30T17:36:50.222Z,6.65
2023-04-30T17:39:18.918Z,5.80
2023-04-30T17:41:46.930Z,9.38
2023-04-30T17:44:14.150Z,4.80
2023-04-30T17:46:41.400Z,5.63
2023-04-30T17:49:11.353Z,4.97
2023-04-30T17:51:38.408Z,6.75
2023-04-30T17:54:05.616Z,7.15
2023-04-30T17:56:33.402Z,6.80
2023-04-30T17:59:00.879Z,9.43
2023-04-30T18:01:28.174Z,10.70
2023-04-30T18:03:55.532Z,4.38
2023-04-30T18:06:22.901Z,7.40
2023-04-30T18:08:49.997Z,5.53
2023-04-30T18:11:17.177Z,3.30
2023-04-30T18:13:45.067Z,7.90
2023-04-30T18:16:14.150Z,2.28
2023-04-30T18:18:41.499Z,3.17
2023-04-30T18:21:08.960Z,4.68
2023-04-30T18:23:36.828Z,6.40
2023-04-30T18:26:04.890Z,4.32
2023-04-30T18:28:32.137Z,6.90
2023-04-30T18:30:59.415Z,6.50
2023-04-30T18:33:27.251Z,3.08
2023-04-30T18:35:54.780Z,7.32
2023-04-30T18:38:22.073Z,7.18
2023-04-30T18:40:55.855Z,8.15
2023-04-30T18:43:25.867Z,6.18
2023-04-30T18:45:53.171Z,5.83
2023-04-30T18:48:22.968Z,4.70
2023-04-30T18:50:50.283Z,7.10
2023-04-30T18:53:18.246Z,6.15
2023-04-30T18:55:45.694Z,8.23
2023-04-30T18:58:13.044Z,4.97
2023-04-30T19:00:42.959Z,7.68
2023-04-30T19:03:10.757Z,7.78
2023-04-30T19:05:38.028Z,6.07
2023-04-30T19:08:05.167Z,6.40
2023-04-30T19:10:34.465Z,4.65
2023-04-30T19:13:04.492Z,7.53
2023-04-30T19:15:31.773Z,3.03
2023-04-30T19:17:59.042Z,5.95
2023-04-30T19:20:27.552Z,4.60
2023-04-30T19:22:54.759Z,6.85
2023-04-30T19:25:24.426Z,5.70
2023-04-30T19:27:51.938Z,8.15
2023-04-30T19:30:19.275Z,6.97
2023-04-30T19:32:47.000Z,6.18
2023-04-30T19:35:14.528Z,3.63
2023-04-30T19:37:41.824Z,5.65
2023-04-30T19:40:12.685Z,4.82
2023-04-30T19:42:40.285Z,4.90
2023-04-30T19:45:09.776Z,4.82
2023-04-30T19:47:39.314Z,6.25
2023-04-30T19:50:07.278Z,7.53
2023-04-30T19:52:34.927Z,6.57
2023-04-30T19:55:02.462Z,6.65
2023-04-30T19:57:36.036Z,11.13
2023-04-30T20:00:06.749Z,4.90
2023-04-30T20:02:37.050Z,5.68
2023-04-30T20:05:07.681Z,9.07
2023-04-30T20:07:34.862Z,6.60
2023-04-30T20:10:02.077Z,6.22
2023-04-30T20:12:31.267Z,1.77
2023-04-30T20:14:58.448Z,5.93
2023-04-30T20:17:25.604Z,6.10
2023-04-30T20:19:52.833Z,6.88
2023-04-30T20:22:20.006Z,4.53
2023-04-30T20:24:48.271Z,5.78
2023-04-30T20:27:15.347Z,6.30
2023-04-30T20:29:42.766Z,5.03
2023-04-30T20:32:10.009Z,2.97
2023-04-30T20:34:37.428Z,3.60
2023-04-30T20:37:05.740Z,5.40
2023-04-30T20:39:33.130Z,8.55
2023-04-30T20:42:01.606Z,6.95
2023-04-30T20:44:28.788Z,4.18
2023-04-30T20:46:56.208Z,6.28
2023-04-30T20:49:24.240Z,6.68
2023-04-30T20:51:51.364Z,5.22
2023-04-30T20:54:18.817Z,4.97
2023-04-30T20:56:47.347Z,6.72
2023-04-30T20:59:14.901Z,4.85
2023-04-30T21:01:42.146Z,5.05
2023-04-30T21:04:09.767Z,6.15
2023-04-30T21:06:37.209Z,6.97
2023-04-30T21:09:04.789Z,5.28
2023-04-30T21:11:33.186Z,3.60
2023-04-30T21:14:00.317Z,6.53
2023-04-30T21:16:28.062Z,4.13
2023-04-30T21:18:55.778Z,5.38
2023-04-30T21:21:23.760Z,6.80
2023-04-30T21:23:50.905Z,5.13
2023-04-30T21:26:18.101Z,5.15
2023-04-30T21:28:45.650Z,4.28
2023-04-30T21:31:13.116Z,6.70
2023-04-30T21:33:40.307Z,6.05
2023-04-30T21:36:07.876Z,6.95
2023-04-30T21:38:35.109Z,3.90
2023-04-30T21:41:02.148Z,4.88
2023-04-30T21:43:29.283Z,4.43
2023-04-30T21:46:04.024Z,6.72
2023-04-30T21:48:31.199Z,6.57
2023-04-30T21:50:58.308Z,7.22
2023-04-30T21:53:25.421Z,6.07
2023-04-30T21:55:52.560Z,8.35
2023-04-30T21:58:19.669Z,6.60
2023-04-30T22:00:46.736Z,8.23
2023-04-30T22:03:16.135Z,8.65
2023-04-30T22:05:43.646Z,8.30
2023-04-30T22:08:10.955Z,12.27
2023-04-30T22:10:38.174Z,8.10
2023-04-30T22:13:05.383Z,8.15
2023-04-30T22:15:47.233Z,9.00
2023-04-30T22:18:15.409Z,6.53
2023-04-30T22:20:42.494Z,13.23
2023-04-30T22:23:09.583Z,9.80
2023-04-30T22:25:36.627Z,8.43
2023-04-30T22:28:03.797Z,9.68
2023-04-30T22:30:31.433Z,11.50
2023-04-30T22:32:58.720Z,7.28
2023-04-30T22:35:27.698Z,8.82
2023-04-30T22:37:54.867Z,8.50
2023-04-30T22:40:22.551Z,9.13
2023-04-30T22:42:49.816Z,9.02
2023-04-30T22:45:17.036Z,8.70
2023-04-30T22:47:45.905Z,7.15
2023-04-30T22:50:13.434Z,6.00
2023-04-30T22:52:40.610Z,3.95
2023-04-30T22:55:08.392Z,7.93
2023-04-30T22:57:35.732Z,5.88
2023-04-30T23:00:04.740Z,5.72
2023-04-30T23:02:35.008Z,3.67
2023-04-30T23:05:03.382Z,5.60
2023-04-30T23:07:32.056Z,6.15
2023-04-30T23:09:59.347Z,5.05
2023-04-30T23:12:26.528Z,4.90
2023-04-30T23:14:53.680Z,6.07
2023-04-30T23:17:20.908Z,6.65
2023-04-30T23:19:48.047Z,6.28
2023-04-30T23:22:15.316Z,5.53
2023-04-30T23:24:42.700Z,5.47
2023-04-30T23:27:09.793Z,6.97
2023-04-30T23:29:36.795Z,6.25
2023-04-30T23:32:04.652Z,6.53
2023-04-30T23:34:32.074Z,4.68
2023-04-30T23:36:59.360Z,8.27
2023-04-30T23:39:26.716Z,5.75
2023-04-30T23:41:53.820Z,5.22
2023-04-30T23:44:21.809Z,7.63
2023-04-30T23:46:51.084Z,4.93
2023-04-30T23:49:18.451Z,3.67
2023-04-30T23:51:45.863Z,5.55
2023-04-30T23:54:13.405Z,6.40
2023-04-30T23:56:40.567Z,5.95
2023-04-30T23:59:07.769Z,9.07
